sensor_id;sensor_type;location;lat;lon;timestamp;temperature;humidity
29413;DHT22;16389;50.126;8.450;2023-04-06T00:02:20;1.50;99.90
29413;DHT22;16389;50.126;8.450;2023-04-06T00:04:46;1.50;99.90
29413;DHT22;16389;50.126;8.450;2023-04-06T00:07:11;1.50;99.90
29413;DHT22;16389;50.126;8.450;2023-04-06T00:09:37;1.50;99.90
29413;DHT22;16389;50.126;8.450;2023-04-06T00:12:02;1.50;99.90
29413;DHT22;16389;50.126;8.450;2023-04-06T00:14:28;1.50;99.90
29413;DHT22;16389;50.126;8.450;2023-04-06T00:16:54;1.60;99.90
29413;DHT22;16389;50.126;8.450;2023-04-06T00:19:20;1.60;99.90
29413;DHT22;16389;50.126;8.450;2023-04-06T00:21:45;1.50;99.90
29413;DHT22;16389;50.126;8.450;2023-04-06T00:24:11;1.50;99.90
29413;DHT22;16389;50.126;8.450;2023-04-06T00:26:36;1.50;99.90
29413;DHT22;16389;50.126;8.450;2023-04-06T00:29:02;1.50;99.90
29413;DHT22;16389;50.126;8.450;2023-04-06T00:31:27;1.40;99.90
29413;DHT22;16389;50.126;8.450;2023-04-06T00:33:53;1.40;99.90
29413;DHT22;16389;50.126;8.450;2023-04-06T00:36:18;1.40;99.90
29413;DHT22;16389;50.126;8.450;2023-04-06T00:38:44;1.30;99.90
29413;DHT22;16389;50.126;8.450;2023-04-06T00:41:10;1.30;99.90
29413;DHT22;16389;50.126;8.450;2023-04-06T00:43:35;1.30;99.90
29413;DHT22;16389;50.126;8.450;2023-04-06T00:46:01;1.20;99.90
29413;DHT22;16389;50.126;8.450;2023-04-06T00:48:26;1.10;99.90
29413;DHT22;16389;50.126;8.450;2023-04-06T00:50:52;1.10;99.90
29413;DHT22;16389;50.126;8.450;2023-04-06T00:53:17;1.10;99.90
29413;DHT22;16389;50.126;8.450;2023-04-06T00:55:43;1.20;99.90
29413;DHT22;16389;50.126;8.450;2023-04-06T00:58:08;1.10;99.90
29413;DHT22;16389;50.126;8.450;2023-04-06T01:00:34;1.10;99.90
29413;DHT22;16389;50.126;8.450;2023-04-06T01:03:00;1.10;99.90
29413;DHT22;16389;50.126;8.450;2023-04-06T01:05:26;1.00;99.90
29413;DHT22;16389;50.126;8.450;2023-04-06T01:07:51;0.90;99.90
29413;DHT22;16389;50.126;8.450;2023-04-06T01:10:24;1.00;99.90
29413;DHT22;16389;50.126;8.450;2023-04-06T01:12:50;1.00;99.90
29413;DHT22;16389;50.126;8.450;2023-04-06T01:15:15;1.00;99.90
29413;DHT22;16389;50.126;8.450;2023-04-06T01:17:41;1.00;99.90
29413;DHT22;16389;50.126;8.450;2023-04-06T01:20:07;0.90;99.90
29413;DHT22;16389;50.126;8.450;2023-04-06T01:22:32;0.80;99.90
29413;DHT22;16389;50.126;8.450;2023-04-06T01:24:58;0.80;99.90
29413;DHT22;16389;50.126;8.450;2023-04-06T01:27:23;0.80;99.90
29413;DHT22;16389;50.126;8.450;2023-04-06T01:29:50;0.80;99.90
29413;DHT22;16389;50.126;8.450;2023-04-06T01:32:16;0.90;99.90
29413;DHT22;16389;50.126;8.450;2023-04-06T01:34:41;0.90;99.90
29413;DHT22;16389;50.126;8.450;2023-04-06T01:37:07;0.90;99.90
29413;DHT22;16389;50.126;8.450;2023-04-06T01:39:32;1.00;99.90
29413;DHT22;16389;50.126;8.450;2023-04-06T01:41:58;0.90;99.90
29413;DHT22;16389;50.126;8.450;2023-04-06T01:44:23;0.90;99.90
29413;DHT22;16389;50.126;8.450;2023-04-06T01:46:49;0.80;99.90
29413;DHT22;16389;50.126;8.450;2023-04-06T01:49:15;0.70;99.90
29413;DHT22;16389;50.126;8.450;2023-04-06T01:51:40;0.60;99.90
29413;DHT22;16389;50.126;8.450;2023-04-06T01:54:06;0.60;99.90
29413;DHT22;16389;50.126;8.450;2023-04-06T01:56:31;0.70;99.90
29413;DHT22;16389;50.126;8.450;2023-04-06T01:58:57;0.70;99.90
29413;DHT22;16389;50.126;8.450;2023-04-06T02:01:23;0.60;99.90
29413;DHT22;16389;50.126;8.450;2023-04-06T02:03:48;0.70;99.90
29413;DHT22;16389;50.126;8.450;2023-04-06T02:06:14;0.70;99.90
29413;DHT22;16389;50.126;8.450;2023-04-06T02:08:39;0.70;99.90
29413;DHT22;16389;50.126;8.450;2023-04-06T02:11:05;0.60;99.90
29413;DHT22;16389;50.126;8.450;2023-04-06T02:13:30;0.50;99.90
29413;DHT22;16389;50.126;8.450;2023-04-06T02:15:56;0.50;99.90
29413;DHT22;16389;50.126;8.450;2023-04-06T02:18:22;0.40;99.90
29413;DHT22;16389;50.126;8.450;2023-04-06T02:20:48;0.40;99.90
29413;DHT22;16389;50.126;8.450;2023-04-06T02:23:13;0.30;99.90
29413;DHT22;16389;50.126;8.450;2023-04-06T02:25:39;0.30;99.90
29413;DHT22;16389;50.126;8.450;2023-04-06T02:28:05;0.30;99.90
29413;DHT22;16389;50.126;8.450;2023-04-06T02:30:30;0.20;99.90
29413;DHT22;16389;50.126;8.450;2023-04-06T02:32:59;0.30;99.90
29413;DHT22;16389;50.126;8.450;2023-04-06T02:35:24;0.30;99.90
29413;DHT22;16389;50.126;8.450;2023-04-06T02:37:50;0.30;99.90
29413;DHT22;16389;50.126;8.450;2023-04-06T02:40:15;0.40;99.90
29413;DHT22;16389;50.126;8.450;2023-04-06T02:42:41;0.40;99.90
29413;DHT22;16389;50.126;8.450;2023-04-06T02:45:07;0.40;99.90
29413;DHT22;16389;50.126;8.450;2023-04-06T02:47:32;0.40;99.90
29413;DHT22;16389;50.126;8.450;2023-04-06T02:49:58;0.30;99.90
29413;DHT22;16389;50.126;8.450;2023-04-06T02:52:23;0.30;99.90
29413;DHT22;16389;50.126;8.450;2023-04-06T02:54:49;0.30;99.90
29413;DHT22;16389;50.126;8.450;2023-04-06T02:57:16;0.40;99.90
29413;DHT22;16389;50.126;8.450;2023-04-06T02:59:42;0.40;99.90
29413;DHT22;16389;50.126;8.450;2023-04-06T03:02:07;0.40;99.90
29413;DHT22;16389;50.126;8.450;2023-04-06T03:04:33;0.50;99.90
29413;DHT22;16389;50.126;8.450;2023-04-06T03:06:58;0.50;99.90
29413;DHT22;16389;50.126;8.450;2023-04-06T03:09:24;0.50;99.90
29413;DHT22;16389;50.126;8.450;2023-04-06T03:11:49;0.50;99.90
29413;DHT22;16389;50.126;8.450;2023-04-06T03:14:15;0.50;99.90
29413;DHT22;16389;50.126;8.450;2023-04-06T03:16:42;0.50;99.90
29413;DHT22;16389;50.126;8.450;2023-04-06T03:19:08;0.40;99.90
29413;DHT22;16389;50.126;8.450;2023-04-06T03:21:33;0.30;99.90
29413;DHT22;16389;50.126;8.450;2023-04-06T03:23:59;0.30;99.90
29413;DHT22;16389;50.126;8.450;2023-04-06T03:26:24;0.20;99.90
29413;DHT22;16389;50.126;8.450;2023-04-06T03:28:50;0.10;99.90
29413;DHT22;16389;50.126;8.450;2023-04-06T03:31:15;0.00;99.90
29413;DHT22;16389;50.126;8.450;2023-04-06T03:33:41;-0.10;99.90
29413;DHT22;16389;50.126;8.450;2023-04-06T03:36:06;-0.20;99.90
29413;DHT22;16389;50.126;8.450;2023-04-06T03:38:32;-0.30;99.90
29413;DHT22;16389;50.126;8.450;2023-04-06T03:40:57;-0.20;99.90
29413;DHT22;16389;50.126;8.450;2023-04-06T03:43:23;-0.30;99.90
29413;DHT22;16389;50.126;8.450;2023-04-06T03:45:48;-0.30;99.90
29413;DHT22;16389;50.126;8.450;2023-04-06T03:48:14;-0.30;99.90
29413;DHT22;16389;50.126;8.450;2023-04-06T03:50:40;-0.30;99.90
29413;DHT22;16389;50.126;8.450;2023-04-06T03:53:05;-0.20;99.90
29413;DHT22;16389;50.126;8.450;2023-04-06T03:55:31;-0.20;99.90
29413;DHT22;16389;50.126;8.450;2023-04-06T03:57:56;-0.10;99.90
29413;DHT22;16389;50.126;8.450;2023-04-06T04:00:22;-0.10;99.90
29413;DHT22;16389;50.126;8.450;2023-04-06T04:02:47;-0.10;99.90
29413;DHT22;16389;50.126;8.450;2023-04-06T04:05:13;-0.10;99.90
29413;DHT22;16389;50.126;8.450;2023-04-06T04:07:38;-0.10;99.90
29413;DHT22;16389;50.126;8.450;2023-04-06T04:10:04;-0.10;99.90
29413;DHT22;16389;50.126;8.450;2023-04-06T04:12:30;-0.10;99.90
29413;DHT22;16389;50.126;8.450;2023-04-06T04:14:55;-0.10;99.90
29413;DHT22;16389;50.126;8.450;2023-04-06T04:17:21;-0.10;99.90
29413;DHT22;16389;50.126;8.450;2023-04-06T04:19:47;-0.10;99.90
29413;DHT22;16389;50.126;8.450;2023-04-06T04:22:12;-0.20;99.90
29413;DHT22;16389;50.126;8.450;2023-04-06T04:24:38;-0.30;99.90
29413;DHT22;16389;50.126;8.450;2023-04-06T04:27:03;-0.30;99.90
29413;DHT22;16389;50.126;8.450;2023-04-06T04:29:30;-0.40;99.90
29413;DHT22;16389;50.126;8.450;2023-04-06T04:31:55;-0.30;99.90
29413;DHT22;16389;50.126;8.450;2023-04-06T04:34:21;-0.40;99.90
29413;DHT22;16389;50.126;8.450;2023-04-06T04:36:49;-0.30;99.90
29413;DHT22;16389;50.126;8.450;2023-04-06T04:39:14;-0.30;99.90
29413;DHT22;16389;50.126;8.450;2023-04-06T04:41:40;-0.20;99.90
29413;DHT22;16389;50.126;8.450;2023-04-06T04:44:05;-0.20;99.90
29413;DHT22;16389;50.126;8.450;2023-04-06T04:46:31;-0.20;99.90
29413;DHT22;16389;50.126;8.450;2023-04-06T04:48:56;-0.30;99.90
29413;DHT22;16389;50.126;8.450;2023-04-06T04:51:22;-0.30;99.90
29413;DHT22;16389;50.126;8.450;2023-04-06T04:53:47;-0.40;99.90
29413;DHT22;16389;50.126;8.450;2023-04-06T04:56:13;-0.30;99.90
29413;DHT22;16389;50.126;8.450;2023-04-06T04:58:38;-0.20;99.90
29413;DHT22;16389;50.126;8.450;2023-04-06T05:01:04;-0.20;99.90
29413;DHT22;16389;50.126;8.450;2023-04-06T05:03:30;-0.20;99.90
29413;DHT22;16389;50.126;8.450;2023-04-06T05:05:55;-0.10;99.90
29413;DHT22;16389;50.126;8.450;2023-04-06T05:08:21;-0.10;99.90
29413;DHT22;16389;50.126;8.450;2023-04-06T05:10:46;-0.10;99.90
29413;DHT22;16389;50.126;8.450;2023-04-06T05:13:13;0.00;99.90
29413;DHT22;16389;50.126;8.450;2023-04-06T05:15:39;-0.10;99.90
29413;DHT22;16389;50.126;8.450;2023-04-06T05:18:05;0.00;99.90
29413;DHT22;16389;50.126;8.450;2023-04-06T05:20:32;0.00;99.90
29413;DHT22;16389;50.126;8.450;2023-04-06T05:22:58;0.00;99.90
29413;DHT22;16389;50.126;8.450;2023-04-06T05:25:24;0.10;99.90
29413;DHT22;16389;50.126;8.450;2023-04-06T05:27:49;0.10;99.90
29413;DHT22;16389;50.126;8.450;2023-04-06T05:30:15;0.20;99.90
29413;DHT22;16389;50.126;8.450;2023-04-06T05:32:41;0.20;99.90
29413;DHT22;16389;50.126;8.450;2023-04-06T05:35:07;0.30;99.90
29413;DHT22;16389;50.126;8.450;2023-04-06T05:37:33;0.40;99.90
29413;DHT22;16389;50.126;8.450;2023-04-06T05:39:59;0.40;99.90
29413;DHT22;16389;50.126;8.450;2023-04-06T05:42:24;0.60;99.90
29413;DHT22;16389;50.126;8.450;2023-04-06T05:44:50;0.60;99.90
29413;DHT22;16389;50.126;8.450;2023-04-06T05:47:16;0.70;99.90
29413;DHT22;16389;50.126;8.450;2023-04-06T05:49:42;0.70;99.90
29413;DHT22;16389;50.126;8.450;2023-04-06T05:52:08;0.80;99.90
29413;DHT22;16389;50.126;8.450;2023-04-06T05:54:34;0.90;99.90
29413;DHT22;16389;50.126;8.450;2023-04-06T05:57:01;0.90;99.90
29413;DHT22;16389;50.126;8.450;2023-04-06T05:59:27;1.00;99.90
29413;DHT22;16389;50.126;8.450;2023-04-06T06:01:52;1.20;99.90
29413;DHT22;16389;50.126;8.450;2023-04-06T06:04:18;1.20;99.90
29413;DHT22;16389;50.126;8.450;2023-04-06T06:06:43;1.30;99.90
29413;DHT22;16389;50.126;8.450;2023-04-06T06:09:09;1.40;99.90
29413;DHT22;16389;50.126;8.450;2023-04-06T06:11:34;1.50;99.90
29413;DHT22;16389;50.126;8.450;2023-04-06T06:14:00;1.60;99.90
29413;DHT22;16389;50.126;8.450;2023-04-06T06:16:25;1.70;99.90
29413;DHT22;16389;50.126;8.450;2023-04-06T06:18:51;1.80;99.90
29413;DHT22;16389;50.126;8.450;2023-04-06T06:21:16;1.90;99.90
29413;DHT22;16389;50.126;8.450;2023-04-06T06:23:42;2.00;99.90
29413;DHT22;16389;50.126;8.450;2023-04-06T06:26:08;2.10;99.90
29413;DHT22;16389;50.126;8.450;2023-04-06T06:28:33;2.20;99.90
29413;DHT22;16389;50.126;8.450;2023-04-06T06:30:59;2.30;99.90
29413;DHT22;16389;50.126;8.450;2023-04-06T06:33:25;2.50;99.90
29413;DHT22;16389;50.126;8.450;2023-04-06T06:35:51;2.60;99.90
29413;DHT22;16389;50.126;8.450;2023-04-06T06:38:17;2.70;99.90
29413;DHT22;16389;50.126;8.450;2023-04-06T06:40:43;2.70;99.90
29413;DHT22;16389;50.126;8.450;2023-04-06T06:43:08;2.90;99.90
29413;DHT22;16389;50.126;8.450;2023-04-06T06:45:34;3.00;99.90
29413;DHT22;16389;50.126;8.450;2023-04-06T06:48:00;3.10;99.90
29413;DHT22;16389;50.126;8.450;2023-04-06T06:50:25;3.30;99.90
29413;DHT22;16389;50.126;8.450;2023-04-06T06:52:51;3.50;99.90
29413;DHT22;16389;50.126;8.450;2023-04-06T06:55:16;3.70;99.90
29413;DHT22;16389;50.126;8.450;2023-04-06T06:57:44;3.80;99.90
29413;DHT22;16389;50.126;8.450;2023-04-06T07:00:11;4.00;99.90
29413;DHT22;16389;50.126;8.450;2023-04-06T07:02:38;4.20;99.90
29413;DHT22;16389;50.126;8.450;2023-04-06T07:05:04;4.30;99.90
29413;DHT22;16389;50.126;8.450;2023-04-06T07:07:31;4.50;99.90
29413;DHT22;16389;50.126;8.450;2023-04-06T07:09:57;4.70;99.90
29413;DHT22;16389;50.126;8.450;2023-04-06T07:12:22;4.80;99.90
29413;DHT22;16389;50.126;8.450;2023-04-06T07:14:48;5.00;99.90
29413;DHT22;16389;50.126;8.450;2023-04-06T07:17:13;5.10;99.90
29413;DHT22;16389;50.126;8.450;2023-04-06T07:19:39;5.30;99.90
29413;DHT22;16389;50.126;8.450;2023-04-06T07:22:04;5.40;99.90
29413;DHT22;16389;50.126;8.450;2023-04-06T07:24:30;5.60;99.90
29413;DHT22;16389;50.126;8.450;2023-04-06T07:26:56;5.80;99.90
29413;DHT22;16389;50.126;8.450;2023-04-06T07:29:22;6.00;99.90
29413;DHT22;16389;50.126;8.450;2023-04-06T07:31:48;6.10;99.90
29413;DHT22;16389;50.126;8.450;2023-04-06T07:34:14;6.20;99.90
29413;DHT22;16389;50.126;8.450;2023-04-06T07:36:40;6.30;99.90
29413;DHT22;16389;50.126;8.450;2023-04-06T07:39:06;6.50;99.90
29413;DHT22;16389;50.126;8.450;2023-04-06T07:41:32;6.60;99.90
29413;DHT22;16389;50.126;8.450;2023-04-06T07:43:57;6.70;99.90
29413;DHT22;16389;50.126;8.450;2023-04-06T07:46:23;6.90;99.90
29413;DHT22;16389;50.126;8.450;2023-04-06T07:48:48;7.00;99.90
29413;DHT22;16389;50.126;8.450;2023-04-06T07:51:15;7.20;99.90
29413;DHT22;16389;50.126;8.450;2023-04-06T07:53:43;7.10;99.90
29413;DHT22;16389;50.126;8.450;2023-04-06T07:56:09;7.30;99.90
29413;DHT22;16389;50.126;8.450;2023-04-06T07:58:35;7.40;99.90
29413;DHT22;16389;50.126;8.450;2023-04-06T08:01:01;7.30;99.90
29413;DHT22;16389;50.126;8.450;2023-04-06T08:03:26;7.50;99.90
29413;DHT22;16389;50.126;8.450;2023-04-06T08:05:52;7.60;99.90
29413;DHT22;16389;50.126;8.450;2023-04-06T08:08:18;7.70;99.90
29413;DHT22;16389;50.126;8.450;2023-04-06T08:10:44;7.90;99.90
29413;DHT22;16389;50.126;8.450;2023-04-06T08:13:10;7.80;99.90
29413;DHT22;16389;50.126;8.450;2023-04-06T08:15:36;7.90;99.90
29413;DHT22;16389;50.126;8.450;2023-04-06T08:18:01;8.00;99.90
29413;DHT22;16389;50.126;8.450;2023-04-06T08:20:27;7.90;99.90
29413;DHT22;16389;50.126;8.450;2023-04-06T08:22:52;8.00;99.90
29413;DHT22;16389;50.126;8.450;2023-04-06T08:25:18;8.20;99.90
29413;DHT22;16389;50.126;8.450;2023-04-06T08:27:43;8.40;99.80
29413;DHT22;16389;50.126;8.450;2023-04-06T08:30:09;8.70;99.90
29413;DHT22;16389;50.126;8.450;2023-04-06T08:32:34;8.80;97.80
29413;DHT22;16389;50.126;8.450;2023-04-06T08:35:01;8.80;97.10
29413;DHT22;16389;50.126;8.450;2023-04-06T08:37:26;8.90;97.00
29413;DHT22;16389;50.126;8.450;2023-04-06T08:39:52;8.90;96.40
29413;DHT22;16389;50.126;8.450;2023-04-06T08:42:21;9.00;97.40
29413;DHT22;16389;50.126;8.450;2023-04-06T08:44:48;9.20;96.80
29413;DHT22;16389;50.126;8.450;2023-04-06T08:47:13;9.30;96.10
29413;DHT22;16389;50.126;8.450;2023-04-06T08:49:39;9.40;95.50
29413;DHT22;16389;50.126;8.450;2023-04-06T08:52:06;9.40;95.60
29413;DHT22;16389;50.126;8.450;2023-04-06T08:54:33;9.80;94.90
29413;DHT22;16389;50.126;8.450;2023-04-06T08:56:59;10.00;94.30
29413;DHT22;16389;50.126;8.450;2023-04-06T08:59:25;10.10;94.10
29413;DHT22;16389;50.126;8.450;2023-04-06T09:01:51;10.30;94.00
29413;DHT22;16389;50.126;8.450;2023-04-06T09:04:17;10.30;92.60
29413;DHT22;16389;50.126;8.450;2023-04-06T09:06:42;10.40;93.30
29413;DHT22;16389;50.126;8.450;2023-04-06T09:09:08;10.70;93.20
29413;DHT22;16389;50.126;8.450;2023-04-06T09:14:08;10.70;92.70
29413;DHT22;16389;50.126;8.450;2023-04-06T09:16:41;10.90;92.00
29413;DHT22;16389;50.126;8.450;2023-04-06T09:19:07;11.00;91.30
29413;DHT22;16389;50.126;8.450;2023-04-06T09:21:33;11.20;91.70
29413;DHT22;16389;50.126;8.450;2023-04-06T09:23:59;10.90;91.20
29413;DHT22;16389;50.126;8.450;2023-04-06T09:26:25;11.30;91.60
29413;DHT22;16389;50.126;8.450;2023-04-06T09:28:52;11.60;91.50
29413;DHT22;16389;50.126;8.450;2023-04-06T09:31:25;11.70;91.30
29413;DHT22;16389;50.126;8.450;2023-04-06T09:33:51;11.90;90.70
29413;DHT22;16389;50.126;8.450;2023-04-06T09:36:19;11.70;89.50
29413;DHT22;16389;50.126;8.450;2023-04-06T09:38:55;11.90;89.60
29413;DHT22;16389;50.126;8.450;2023-04-06T09:41:25;11.90;89.20
29413;DHT22;16389;50.126;8.450;2023-04-06T09:43:51;12.20;90.00
29413;DHT22;16389;50.126;8.450;2023-04-06T09:46:17;12.50;89.50
29413;DHT22;16389;50.126;8.450;2023-04-06T09:48:43;12.70;87.60
29413;DHT22;16389;50.126;8.450;2023-04-06T09:51:09;12.90;87.20
29413;DHT22;16389;50.126;8.450;2023-04-06T09:53:37;13.00;85.10
29413;DHT22;16389;50.126;8.450;2023-04-06T09:56:04;13.00;86.40
29413;DHT22;16389;50.126;8.450;2023-04-06T09:58:34;13.10;86.70
29413;DHT22;16389;50.126;8.450;2023-04-06T10:01:02;13.50;87.90
29413;DHT22;16389;50.126;8.450;2023-04-06T10:03:33;13.60;83.00
29413;DHT22;16389;50.126;8.450;2023-04-06T10:06:04;13.70;83.30
29413;DHT22;16389;50.126;8.450;2023-04-06T10:08:30;13.80;82.40
29413;DHT22;16389;50.126;8.450;2023-04-06T10:10:58;14.00;83.00
29413;DHT22;16389;50.126;8.450;2023-04-06T10:13:24;14.30;79.90
29413;DHT22;16389;50.126;8.450;2023-04-06T10:15:50;14.40;79.80
29413;DHT22;16389;50.126;8.450;2023-04-06T10:18:16;14.60;77.60
29413;DHT22;16389;50.126;8.450;2023-04-06T10:23:18;15.30;77.90
29413;DHT22;16389;50.126;8.450;2023-04-06T10:25:52;15.70;75.40
29413;DHT22;16389;50.126;8.450;2023-04-06T10:28:19;16.20;76.20
29413;DHT22;16389;50.126;8.450;2023-04-06T10:30:45;16.60;73.10
29413;DHT22;16389;50.126;8.450;2023-04-06T10:33:14;16.70;72.30
29413;DHT22;16389;50.126;8.450;2023-04-06T10:35:40;16.80;70.30
29413;DHT22;16389;50.126;8.450;2023-04-06T10:38:05;17.10;70.80
29413;DHT22;16389;50.126;8.450;2023-04-06T10:40:31;17.70;68.00
29413;DHT22;16389;50.126;8.450;2023-04-06T10:43:06;18.00;70.60
29413;DHT22;16389;50.126;8.450;2023-04-06T10:45:32;18.50;67.50
29413;DHT22;16389;50.126;8.450;2023-04-06T10:47:57;19.10;66.80
29413;DHT22;16389;50.126;8.450;2023-04-06T10:50:25;19.70;63.90
29413;DHT22;16389;50.126;8.450;2023-04-06T10:53:01;20.10;60.40
29413;DHT22;16389;50.126;8.450;2023-04-06T10:55:27;20.80;60.00
29413;DHT22;16389;50.126;8.450;2023-04-06T10:57:53;21.40;56.80
29413;DHT22;16389;50.126;8.450;2023-04-06T11:00:19;20.80;56.90
29413;DHT22;16389;50.126;8.450;2023-04-06T11:02:45;19.20;56.60
29413;DHT22;16389;50.126;8.450;2023-04-06T11:05:11;18.60;59.40
29413;DHT22;16389;50.126;8.450;2023-04-06T11:07:36;17.70;60.80
29413;DHT22;16389;50.126;8.450;2023-04-06T11:10:02;17.80;62.40
29413;DHT22;16389;50.126;8.450;2023-04-06T11:12:28;17.90;61.70
29413;DHT22;16389;50.126;8.450;2023-04-06T11:14:59;18.70;62.50
29413;DHT22;16389;50.126;8.450;2023-04-06T11:17:33;19.10;59.10
29413;DHT22;16389;50.126;8.450;2023-04-06T11:20:01;19.00;57.90
29413;DHT22;16389;50.126;8.450;2023-04-06T11:22:27;18.90;58.30
29413;DHT22;16389;50.126;8.450;2023-04-06T11:25:04;19.00;60.50
29413;DHT22;16389;50.126;8.450;2023-04-06T11:27:29;19.00;60.20
29413;DHT22;16389;50.126;8.450;2023-04-06T11:29:58;18.90;58.40
29413;DHT22;16389;50.126;8.450;2023-04-06T11:32:23;19.10;59.20
29413;DHT22;16389;50.126;8.450;2023-04-06T11:34:49;19.90;59.60
29413;DHT22;16389;50.126;8.450;2023-04-06T11:37:15;20.50;58.70
29413;DHT22;16389;50.126;8.450;2023-04-06T11:39:51;20.50;57.80
29413;DHT22;16389;50.126;8.450;2023-04-06T11:42:23;20.20;56.70
29413;DHT22;16389;50.126;8.450;2023-04-06T11:44:49;19.80;57.40
29413;DHT22;16389;50.126;8.450;2023-04-06T11:47:15;20.10;58.60
29413;DHT22;16389;50.126;8.450;2023-04-06T11:49:42;20.10;56.50
29413;DHT22;16389;50.126;8.450;2023-04-06T11:52:41;19.80;56.50
29413;DHT22;16389;50.126;8.450;2023-04-06T11:55:09;19.20;56.70
29413;DHT22;16389;50.126;8.450;2023-04-06T11:57:35;18.90;57.00
29413;DHT22;16389;50.126;8.450;2023-04-06T12:00:00;19.00;59.80
29413;DHT22;16389;50.126;8.450;2023-04-06T12:02:26;19.50;58.30
29413;DHT22;16389;50.126;8.450;2023-04-06T12:04:51;20.10;57.60
29413;DHT22;16389;50.126;8.450;2023-04-06T12:07:17;20.50;55.40
29413;DHT22;16389;50.126;8.450;2023-04-06T12:09:42;21.40;56.50
29413;DHT22;16389;50.126;8.450;2023-04-06T12:12:08;21.90;54.80
29413;DHT22;16389;50.126;8.450;2023-04-06T12:14:34;22.00;52.90
29413;DHT22;16389;50.126;8.450;2023-04-06T12:16:59;21.70;53.40
29413;DHT22;16389;50.126;8.450;2023-04-06T12:19:25;21.10;52.60
29413;DHT22;16389;50.126;8.450;2023-04-06T12:21:54;19.90;52.80
29413;DHT22;16389;50.126;8.450;2023-04-06T12:24:20;19.20;55.10
29413;DHT22;16389;50.126;8.450;2023-04-06T12:26:45;18.70;55.70
29413;DHT22;16389;50.126;8.450;2023-04-06T12:29:11;18.30;55.00
29413;DHT22;16389;50.126;8.450;2023-04-06T12:31:38;17.50;55.80
29413;DHT22;16389;50.126;8.450;2023-04-06T12:34:06;17.00;57.70
29413;DHT22;16389;50.126;8.450;2023-04-06T12:36:32;17.00;58.80
29413;DHT22;16389;50.126;8.450;2023-04-06T12:38:57;16.80;60.60
29413;DHT22;16389;50.126;8.450;2023-04-06T12:41:23;17.00;58.70
29413;DHT22;16389;50.126;8.450;2023-04-06T12:43:50;16.90;58.20
29413;DHT22;16389;50.126;8.450;2023-04-06T12:46:15;17.10;59.20
29413;DHT22;16389;50.126;8.450;2023-04-06T12:48:41;17.00;58.20
29413;DHT22;16389;50.126;8.450;2023-04-06T12:51:07;17.00;57.60
29413;DHT22;16389;50.126;8.450;2023-04-06T12:53:33;17.30;58.90
29413;DHT22;16389;50.126;8.450;2023-04-06T12:55:58;17.60;58.30
29413;DHT22;16389;50.126;8.450;2023-04-06T12:58:24;17.50;57.20
29413;DHT22;16389;50.126;8.450;2023-04-06T13:00:53;17.50;57.90
29413;DHT22;16389;50.126;8.450;2023-04-06T13:03:20;17.60;58.00
29413;DHT22;16389;50.126;8.450;2023-04-06T13:05:46;17.70;56.90
29413;DHT22;16389;50.126;8.450;2023-04-06T13:08:12;17.60;56.70
29413;DHT22;16389;50.126;8.450;2023-04-06T13:10:38;17.30;56.50
29413;DHT22;16389;50.126;8.450;2023-04-06T13:13:03;17.30;56.90
29413;DHT22;16389;50.126;8.450;2023-04-06T13:15:29;17.20;57.00
29413;DHT22;16389;50.126;8.450;2023-04-06T13:17:55;17.50;58.30
29413;DHT22;16389;50.126;8.450;2023-04-06T13:20:20;17.80;55.90
29413;DHT22;16389;50.126;8.450;2023-04-06T13:22:46;18.40;57.70
29413;DHT22;16389;50.126;8.450;2023-04-06T13:25:11;19.20;55.80
29413;DHT22;16389;50.126;8.450;2023-04-06T13:27:37;19.60;54.10
29413;DHT22;16389;50.126;8.450;2023-04-06T13:30:03;19.70;53.10
29413;DHT22;16389;50.126;8.450;2023-04-06T13:32:29;20.20;53.00
29413;DHT22;16389;50.126;8.450;2023-04-06T13:34:55;21.10;52.90
29413;DHT22;16389;50.126;8.450;2023-04-06T13:37:21;21.00;51.40
29413;DHT22;16389;50.126;8.450;2023-04-06T13:39:47;21.30;52.30
29413;DHT22;16389;50.126;8.450;2023-04-06T13:42:12;21.00;51.20
29413;DHT22;16389;50.126;8.450;2023-04-06T13:44:38;20.60;51.40
29413;DHT22;16389;50.126;8.450;2023-04-06T13:47:03;20.90;51.70
29413;DHT22;16389;50.126;8.450;2023-04-06T13:49:29;20.80;52.30
29413;DHT22;16389;50.126;8.450;2023-04-06T13:51:55;20.80;50.90
29413;DHT22;16389;50.126;8.450;2023-04-06T13:54:21;20.40;51.30
29413;DHT22;16389;50.126;8.450;2023-04-06T13:56:46;19.70;51.10
29413;DHT22;16389;50.126;8.450;2023-04-06T13:59:12;19.50;52.70
29413;DHT22;16389;50.126;8.450;2023-04-06T14:01:37;19.10;53.70
29413;DHT22;16389;50.126;8.450;2023-04-06T14:04:03;18.80;52.80
29413;DHT22;16389;50.126;8.450;2023-04-06T14:06:28;18.50;53.60
29413;DHT22;16389;50.126;8.450;2023-04-06T14:08:54;18.60;53.90
29413;DHT22;16389;50.126;8.450;2023-04-06T14:11:19;18.40;53.60
29413;DHT22;16389;50.126;8.450;2023-04-06T14:13:45;18.20;53.50
29413;DHT22;16389;50.126;8.450;2023-04-06T14:16:11;18.30;55.10
29413;DHT22;16389;50.126;8.450;2023-04-06T14:18:37;18.10;54.40
29413;DHT22;16389;50.126;8.450;2023-04-06T14:21:03;17.90;54.10
29413;DHT22;16389;50.126;8.450;2023-04-06T14:23:28;17.60;53.60
29413;DHT22;16389;50.126;8.450;2023-04-06T14:26:01;17.70;55.10
29413;DHT22;16389;50.126;8.450;2023-04-06T14:28:27;17.30;54.50
29413;DHT22;16389;50.126;8.450;2023-04-06T14:30:53;16.60;54.70
29413;DHT22;16389;50.126;8.450;2023-04-06T14:33:19;16.20;56.00
29413;DHT22;16389;50.126;8.450;2023-04-06T14:35:44;16.10;56.30
29413;DHT22;16389;50.126;8.450;2023-04-06T14:38:10;16.00;56.30
29413;DHT22;16389;50.126;8.450;2023-04-06T14:40:36;16.10;58.60
29413;DHT22;16389;50.126;8.450;2023-04-06T14:43:03;16.00;57.70
29413;DHT22;16389;50.126;8.450;2023-04-06T14:45:29;15.90;57.00
29413;DHT22;16389;50.126;8.450;2023-04-06T14:47:55;15.70;56.80
29413;DHT22;16389;50.126;8.450;2023-04-06T14:50:20;15.40;57.10
29413;DHT22;16389;50.126;8.450;2023-04-06T14:52:46;15.10;58.10
29413;DHT22;16389;50.126;8.450;2023-04-06T14:55:12;15.10;58.30
29413;DHT22;16389;50.126;8.450;2023-04-06T14:57:37;15.10;59.20
29413;DHT22;16389;50.126;8.450;2023-04-06T15:00:03;15.00;58.30
29413;DHT22;16389;50.126;8.450;2023-04-06T15:02:29;14.90;57.40
29413;DHT22;16389;50.126;8.450;2023-04-06T15:04:56;14.70;58.00
29413;DHT22;16389;50.126;8.450;2023-04-06T15:07:22;14.50;58.90
29413;DHT22;16389;50.126;8.450;2023-04-06T15:09:47;14.60;59.10
29413;DHT22;16389;50.126;8.450;2023-04-06T15:12:13;14.60;59.90
29413;DHT22;16389;50.126;8.450;2023-04-06T15:14:38;14.60;59.40
29413;DHT22;16389;50.126;8.450;2023-04-06T15:17:04;14.40;59.00
29413;DHT22;16389;50.126;8.450;2023-04-06T15:19:29;14.40;60.50
29413;DHT22;16389;50.126;8.450;2023-04-06T15:21:55;14.50;60.70
29413;DHT22;16389;50.126;8.450;2023-04-06T15:24:20;14.40;60.10
29413;DHT22;16389;50.126;8.450;2023-04-06T15:26:46;14.30;59.50
29413;DHT22;16389;50.126;8.450;2023-04-06T15:29:12;14.10;59.40
29413;DHT22;16389;50.126;8.450;2023-04-06T15:31:37;14.20;59.80
29413;DHT22;16389;50.126;8.450;2023-04-06T15:34:04;14.10;59.00
29413;DHT22;16389;50.126;8.450;2023-04-06T15:36:30;13.90;59.20